Time;durP1;ratioP1;P1;durP2;ratioP2;P2;SDS_P1;SDS_P2;PMS_P1;PMS_P2;Temp;Humidity;BMP_temperature;BMP_pressure;BME280_temperature;BME280_humidity;BME280_pressure;Samples;Min_cycle;Max_cycle;Signal;HPM_P1;HPM_P2
2022/03/04 00:01:02;;;;;;;26.50;14.23;;;;;;;;;;5013268;28;20438;-50
2022/03/04 00:03:29;;;;;;;21.90;11.43;;;;;;;;;;5012791;28;20200;-51
2022/03/04 00:05:55;;;;;;;27.30;13.75;;;;;;;;;;5013110;28;20168;-49
2022/03/04 00:08:21;;;;;;;23.10;13.00;;;;;;;;;;5012035;28;20188;-50
2022/03/04 00:10:47;;;;;;;26.90;13.40;;;;;;;;;;5012969;28;20240;-49
2022/03/04 00:13:13;;;;;;;25.00;12.45;;;;;;;;;;5012848;28;20165;-49
2022/03/04 00:15:40;;;;;;;23.75;12.95;;;;;;;;;;5012775;28;20177;-50
2022/03/04 00:18:06;;;;;;;24.40;13.65;;;;;;;;;;5012482;28;20211;-49
2022/03/04 00:20:32;;;;;;;24.77;12.77;;;;;;;;;;5012765;28;20475;-49
2022/03/04 00:22:58;;;;;;;24.90;12.55;;;;;;;;;;5012965;28;20200;-49
2022/03/04 00:25:24;;;;;;;20.90;12.82;;;;;;;;;;5012824;28;20172;-49
2022/03/04 00:27:50;;;;;;;20.50;12.13;;;;;;;;;;5012677;28;20168;-48
2022/03/04 00:33:19;;;;;;;22.90;13.27;;;;;;;;;;5012483;28;20386;-49
2022/03/04 00:35:45;;;;;;;28.67;12.45;;;;;;;;;;5012606;28;20218;-49
2022/03/04 00:38:11;;;;;;;28.43;12.77;;;;;;;;;;5012280;28;20172;-49
2022/03/04 00:40:37;;;;;;;26.45;12.55;;;;;;;;;;5012495;28;20438;-49
2022/03/04 00:43:03;;;;;;;21.13;13.07;;;;;;;;;;5011408;28;20233;-49
2022/03/04 00:45:29;;;;;;;24.80;13.83;;;;;;;;;;5011035;28;20419;-48
2022/03/04 00:47:55;;;;;;;23.60;12.70;;;;;;;;;;5011716;28;20958;-50
2022/03/04 00:50:21;;;;;;;24.60;13.83;;;;;;;;;;5011365;28;20906;-50
2022/03/04 00:52:47;;;;;;;24.70;11.90;;;;;;;;;;5012314;28;20408;-50
2022/03/04 00:55:13;;;;;;;24.27;13.93;;;;;;;;;;5012186;28;20194;-49
2022/03/04 00:57:39;;;;;;;25.60;13.90;;;;;;;;;;5012389;28;20410;-49
2022/03/04 01:00:05;;;;;;;20.93;13.77;;;;;;;;;;5012098;28;20459;-50
2022/03/04 01:02:31;;;;;;;25.70;14.45;;;;;;;;;;5012258;28;20538;-49
2022/03/04 01:04:57;;;;;;;26.00;13.80;;;;;;;;;;5012148;28;20217;-48
2022/03/04 01:07:23;;;;;;;22.88;12.20;;;;;;;;;;5011866;28;20175;-49
2022/03/04 01:09:49;;;;;;;21.00;12.77;;;;;;;;;;5011896;28;20196;-49
2022/03/04 01:12:15;;;;;;;23.60;14.03;;;;;;;;;;5011991;28;20399;-49
2022/03/04 01:14:41;;;;;;;24.23;13.67;;;;;;;;;;5012039;28;20851;-49
2022/03/04 01:17:07;;;;;;;23.25;14.20;;;;;;;;;;5011785;28;20400;-49
2022/03/04 01:19:33;;;;;;;34.50;17.73;;;;;;;;;;5011534;28;20184;-50
2022/03/04 01:21:59;;;;;;;28.30;15.60;;;;;;;;;;5011775;28;20414;-49
2022/03/04 01:24:25;;;;;;;24.13;14.10;;;;;;;;;;5011498;28;20462;-49
2022/03/04 01:26:51;;;;;;;28.53;14.73;;;;;;;;;;5011781;28;20399;-48
2022/03/04 01:29:17;;;;;;;18.60;12.80;;;;;;;;;;5012338;28;20423;-48
2022/03/04 01:31:43;;;;;;;19.27;12.97;;;;;;;;;;5011928;28;20410;-49
2022/03/04 01:34:09;;;;;;;24.60;13.20;;;;;;;;;;5012091;28;20408;-49
2022/03/04 01:36:35;;;;;;;22.58;13.25;;;;;;;;;;5011961;28;20404;-49
2022/03/04 01:39:01;;;;;;;26.43;13.63;;;;;;;;;;5012092;28;20690;-50
2022/03/04 01:41:27;;;;;;;21.70;12.48;;;;;;;;;;5011996;28;20749;-49
2022/03/04 01:43:53;;;;;;;26.20;12.80;;;;;;;;;;5011917;28;20218;-50
2022/03/04 01:46:23;;;;;;;24.93;13.83;;;;;;;;;;5011780;28;20810;-51
2022/03/04 01:48:49;;;;;;;19.73;12.63;;;;;;;;;;5011606;28;20502;-49
2022/03/04 01:51:15;;;;;;;23.87;13.30;;;;;;;;;;5011883;28;20267;-49
2022/03/04 01:53:42;;;;;;;23.60;12.07;;;;;;;;;;5011717;28;20411;-48
2022/03/04 01:56:08;;;;;;;22.27;12.77;;;;;;;;;;5011662;28;20411;-50
2022/03/04 02:01:37;;;;;;;24.60;13.63;;;;;;;;;;5011526;28;20425;-49
2022/03/04 02:04:03;;;;;;;23.10;14.00;;;;;;;;;;5011312;28;20699;-49
2022/03/04 02:06:29;;;;;;;23.52;13.20;;;;;;;;;;5011610;28;20164;-49
2022/03/04 02:08:55;;;;;;;28.03;14.00;;;;;;;;;;5011042;28;20188;-48
2022/03/04 02:11:21;;;;;;;20.60;12.20;;;;;;;;;;5011556;28;20442;-48
2022/03/04 02:13:47;;;;;;;31.73;15.10;;;;;;;;;;5011364;28;20283;-48
2022/03/04 02:16:18;;;;;;;27.17;14.90;;;;;;;;;;5011442;28;20407;-48
2022/03/04 02:18:44;;;;;;;25.08;14.55;;;;;;;;;;5011276;28;20842;-49
2022/03/04 02:21:11;;;;;;;31.80;13.77;;;;;;;;;;5011297;28;20204;-48
2022/03/04 02:23:37;;;;;;;21.67;14.32;;;;;;;;;;5011209;28;20291;-49
2022/03/04 02:26:04;;;;;;;23.00;13.80;;;;;;;;;;5011314;28;20200;-49
2022/03/04 02:28:30;;;;;;;29.13;15.52;;;;;;;;;;5011044;28;20945;-49
2022/03/04 02:30:56;;;;;;;22.40;13.30;;;;;;;;;;5011253;28;20165;-49
2022/03/04 02:33:22;;;;;;;26.43;14.37;;;;;;;;;;5010990;28;20490;-49
2022/03/04 02:35:48;;;;;;;27.10;14.15;;;;;;;;;;5011194;28;20938;-49
2022/03/04 02:38:14;;;;;;;22.30;14.43;;;;;;;;;;5010917;28;20633;-49
2022/03/04 02:40:40;;;;;;;27.90;14.43;;;;;;;;;;5011260;28;20179;-49
2022/03/04 02:43:06;;;;;;;26.80;14.10;;;;;;;;;;5011231;28;20443;-49
2022/03/04 02:45:32;;;;;;;40.53;15.85;;;;;;;;;;5011229;28;20168;-48
2022/03/04 02:47:58;;;;;;;29.80;15.73;;;;;;;;;;5010601;28;20183;-48
2022/03/04 02:50:24;;;;;;;33.70;15.20;;;;;;;;;;5010913;28;20168;-49
2022/03/04 02:52:50;;;;;;;29.47;14.63;;;;;;;;;;5011073;28;20191;-48
2022/03/04 02:55:16;;;;;;;31.43;15.60;;;;;;;;;;5011399;28;20415;-49
2022/03/04 02:57:43;;;;;;;25.87;13.97;;;;;;;;;;5010939;28;20427;-49
2022/03/04 03:00:10;;;;;;;25.83;14.93;;;;;;;;;;5010936;28;20423;-48
2022/03/04 03:02:37;;;;;;;28.35;13.82;;;;;;;;;;5010810;28;20206;-49
2022/03/04 03:05:03;;;;;;;25.70;15.15;;;;;;;;;;5011038;28;20169;-49
2022/03/04 03:07:29;;;;;;;25.45;15.10;;;;;;;;;;5011151;28;20569;-49
2022/03/04 03:09:55;;;;;;;28.80;14.20;;;;;;;;;;5012788;28;20185;-48
2022/03/04 03:12:21;;;;;;;27.65;14.30;;;;;;;;;;5014718;28;20176;-49
2022/03/04 03:14:47;;;;;;;26.23;14.70;;;;;;;;;;5014221;28;20180;-51
2022/03/04 03:17:13;;;;;;;27.73;14.57;;;;;;;;;;5013951;28;20482;-48
2022/03/04 03:19:39;;;;;;;24.70;14.30;;;;;;;;;;5014336;28;20189;-47
2022/03/04 03:22:05;;;;;;;27.35;13.70;;;;;;;;;;5014576;28;20565;-48
2022/03/04 03:24:31;;;;;;;29.25;14.95;;;;;;;;;;5014411;28;20199;-47
2022/03/04 03:26:57;;;;;;;30.73;15.27;;;;;;;;;;5014350;28;20350;-49
2022/03/04 03:29:23;;;;;;;24.37;14.97;;;;;;;;;;5014149;28;20215;-49
2022/03/04 03:31:49;;;;;;;24.58;13.85;;;;;;;;;;5014289;28;20804;-49
2022/03/04 03:34:15;;;;;;;27.90;14.07;;;;;;;;;;5014372;28;20283;-49
2022/03/04 03:36:41;;;;;;;27.95;14.55;;;;;;;;;;5014378;28;20415;-49
2022/03/04 03:39:10;;;;;;;25.80;13.80;;;;;;;;;;5013881;28;20592;-49
2022/03/04 03:41:36;;;;;;;25.02;13.55;;;;;;;;;;5014172;28;20160;-49
2022/03/04 03:44:02;;;;;;;29.40;15.57;;;;;;;;;;5014005;28;20200;-49
2022/03/04 03:46:29;;;;;;;24.50;13.95;;;;;;;;;;5014098;28;20255;-49
2022/03/04 03:48:54;;;;;;;24.50;13.48;;;;;;;;;;5013743;28;20742;-48
2022/03/04 03:51:21;;;;;;;21.03;12.60;;;;;;;;;;5013946;28;20188;-49
2022/03/04 03:53:47;;;;;;;25.42;13.15;;;;;;;;;;5013916;28;20410;-49
2022/03/04 03:56:13;;;;;;;36.27;15.30;;;;;;;;;;5014106;28;20258;-49
2022/03/04 03:58:39;;;;;;;23.50;12.50;;;;;;;;;;5013558;28;20911;-49
2022/03/04 04:01:05;;;;;;;24.90;13.23;;;;;;;;;;5013789;28;20183;-48
2022/03/04 04:03:31;;;;;;;36.08;14.77;;;;;;;;;;5013659;28;20447;-48
2022/03/04 04:05:57;;;;;;;27.57;13.90;;;;;;;;;;5013800;28;20230;-49
2022/03/04 04:08:23;;;;;;;28.90;14.40;;;;;;;;;;5013393;28;20423;-49
2022/03/04 04:10:49;;;;;;;29.58;13.43;;;;;;;;;;5013698;28;20168;-49
2022/03/04 04:13:15;;;;;;;28.57;13.37;;;;;;;;;;5013596;28;20172;-48
2022/03/04 04:15:41;;;;;;;29.20;13.70;;;;;;;;;;5013492;28;20411;-49
2022/03/04 04:18:08;;;;;;;27.60;14.05;;;;;;;;;;5011890;28;20407;-49
2022/03/04 04:20:35;;;;;;;28.02;13.45;;;;;;;;;;5012514;28;20168;-49
2022/03/04 04:23:01;;;;;;;24.42;14.07;;;;;;;;;;5011543;28;20265;-47
2022/03/04 04:25:27;;;;;;;29.00;14.48;;;;;;;;;;5011965;28;20169;-49
2022/03/04 04:27:53;;;;;;;23.40;13.43;;;;;;;;;;5013235;28;20176;-49
2022/03/04 04:30:19;;;;;;;27.50;14.57;;;;;;;;;;5013291;28;20915;-49
2022/03/04 04:32:45;;;;;;;27.50;13.70;;;;;;;;;;5013330;28;20215;-50
2022/03/04 04:35:10;;;;;;;23.87;13.47;;;;;;;;;;5013561;28;20772;-49
2022/03/04 04:37:37;;;;;;;24.20;12.70;;;;;;;;;;5013306;28;20403;-49
2022/03/04 04:40:04;;;;;;;23.98;13.23;;;;;;;;;;5013037;28;20519;-49
2022/03/04 04:42:30;;;;;;;29.77;14.15;;;;;;;;;;5013231;28;20568;-49
2022/03/04 04:44:56;;;;;;;26.75;13.30;;;;;;;;;;5013129;28;20751;-49
2022/03/04 04:47:22;;;;;;;24.17;13.07;;;;;;;;;;5013158;28;20176;-49
2022/03/04 04:49:48;;;;;;;24.60;12.77;;;;;;;;;;5012776;28;20438;-48
2022/03/04 04:52:15;;;;;;;25.30;13.70;;;;;;;;;;5012790;28;20415;-48
2022/03/04 04:54:41;;;;;;;27.77;12.95;;;;;;;;;;5012886;28;20632;-49
2022/03/04 04:57:07;;;;;;;28.08;15.95;;;;;;;;;;5012867;28;20191;-48
2022/03/04 04:59:33;;;;;;;27.43;12.93;;;;;;;;;;5012471;28;20196;-49
2022/03/04 05:01:59;;;;;;;24.52;12.38;;;;;;;;;;5012809;28;20434;-49
2022/03/04 05:04:25;;;;;;;24.33;13.35;;;;;;;;;;5012670;28;20203;-49
2022/03/04 05:06:51;;;;;;;30.55;12.00;;;;;;;;;;5012484;28;20379;-49
2022/03/04 05:09:17;;;;;;;24.58;12.18;;;;;;;;;;5012347;28;20711;-50
2022/03/04 05:11:43;;;;;;;23.87;12.60;;;;;;;;;;5012485;28;20311;-48
2022/03/04 05:14:10;;;;;;;27.50;14.18;;;;;;;;;;5012346;28;20408;-48
2022/03/04 05:16:36;;;;;;;23.83;13.80;;;;;;;;;;5012473;28;20175;-48
2022/03/04 05:19:01;;;;;;;23.17;12.60;;;;;;;;;;5012131;28;20196;-49
2022/03/04 05:21:27;;;;;;;29.53;15.00;;;;;;;;;;5012303;28;20177;-48
2022/03/04 05:23:59;;;;;;;25.93;12.47;;;;;;;;;;5012318;28;20447;-48
2022/03/04 05:26:27;;;;;;;21.42;12.88;;;;;;;;;;5012284;28;20406;-48
2022/03/04 05:28:53;;;;;;;26.30;14.00;;;;;;;;;;5011746;28;20177;-48
2022/03/04 05:31:19;;;;;;;26.13;13.45;;;;;;;;;;5012152;28;20168;-48
2022/03/04 05:33:45;;;;;;;26.10;13.90;;;;;;;;;;5011808;28;20172;-48
2022/03/04 05:36:11;;;;;;;29.03;13.50;;;;;;;;;;5012511;28;20176;-48
2022/03/04 05:38:37;;;;;;;28.48;14.45;;;;;;;;;;5011839;28;20430;-48
2022/03/04 05:41:03;;;;;;;21.00;12.68;;;;;;;;;;5012114;28;20541;-48
2022/03/04 05:43:29;;;;;;;24.20;12.30;;;;;;;;;;5012179;28;20196;-48
2022/03/04 05:45:55;;;;;;;24.53;14.03;;;;;;;;;;5011914;28;20186;-49
2022/03/04 05:48:21;;;;;;;22.92;12.85;;;;;;;;;;5011678;28;20423;-48
2022/03/04 05:50:47;;;;;;;23.33;12.95;;;;;;;;;;5011791;28;20184;-48
2022/03/04 05:53:14;;;;;;;27.30;14.80;;;;;;;;;;5011772;28;20174;-49
2022/03/04 05:55:40;;;;;;;24.63;14.20;;;;;;;;;;5011840;28;20195;-48
2022/03/04 05:58:06;;;;;;;29.45;14.80;;;;;;;;;;5011233;28;20553;-49
2022/03/04 06:00:32;;;;;;;27.43;14.73;;;;;;;;;;5011898;28;20172;-48
2022/03/04 06:02:58;;;;;;;25.17;14.70;;;;;;;;;;5011562;28;20532;-48
2022/03/04 06:05:24;;;;;;;27.50;15.60;;;;;;;;;;5011743;28;20684;-49
2022/03/04 06:07:50;;;;;;;26.50;15.15;;;;;;;;;;5011504;28;20392;-48
2022/03/04 06:10:16;;;;;;;27.00;14.77;;;;;;;;;;5011649;28;20197;-49
2022/03/04 06:12:42;;;;;;;24.73;13.00;;;;;;;;;;5011534;28;20165;-48
2022/03/04 06:15:08;;;;;;;30.37;15.20;;;;;;;;;;5011804;28;20572;-49
2022/03/04 06:17:34;;;;;;;29.98;12.90;;;;;;;;;;5011696;28;20503;-48
2022/03/04 06:20:00;;;;;;;21.00;12.25;;;;;;;;;;5011315;28;20187;-49
2022/03/04 06:22:27;;;;;;;23.33;12.77;;;;;;;;;;5011378;28;20164;-49
2022/03/04 06:24:53;;;;;;;23.23;12.88;;;;;;;;;;5011412;28;20243;-49
2022/03/04 06:27:19;;;;;;;28.85;12.90;;;;;;;;;;5011267;28;20161;-49
2022/03/04 06:29:45;;;;;;;26.40;16.00;;;;;;;;;;5010993;28;20214;-49
2022/03/04 06:32:13;;;;;;;27.00;12.80;;;;;;;;;;5011272;28;20403;-49
2022/03/04 06:34:39;;;;;;;27.13;13.65;;;;;;;;;;5011305;28;20404;-48
2022/03/04 06:37:05;;;;;;;26.95;12.85;;;;;;;;;;5011166;28;20180;-49
2022/03/04 06:39:31;;;;;;;24.77;14.05;;;;;;;;;;5010949;28;20283;-48
2022/03/04 06:41:57;;;;;;;29.43;14.60;;;;;;;;;;5011011;28;20252;-48
2022/03/04 06:44:25;;;;;;;22.97;13.97;;;;;;;;;;5012194;28;20517;-49
2022/03/04 06:46:52;;;;;;;22.02;12.77;;;;;;;;;;5015261;28;20818;-49
2022/03/04 06:49:18;;;;;;;28.00;14.05;;;;;;;;;;5015082;28;20180;-49
2022/03/04 06:51:44;;;;;;;26.73;13.60;;;;;;;;;;5014995;28;20188;-49
2022/03/04 06:54:09;;;;;;;30.80;16.87;;;;;;;;;;5015114;28;20400;-49
2022/03/04 06:56:35;;;;;;;33.10;15.57;;;;;;;;;;5015037;28;20770;-49
2022/03/04 06:59:01;;;;;;;25.50;15.53;;;;;;;;;;5014955;28;20434;-49
2022/03/04 07:01:27;;;;;;;36.40;16.17;;;;;;;;;;5014986;28;20407;-48
2022/03/04 07:03:53;;;;;;;34.77;14.90;;;;;;;;;;5014753;28;20513;-48
2022/03/04 07:06:19;;;;;;;28.60;15.10;;;;;;;;;;5014961;28;20403;-49
2022/03/04 07:08:45;;;;;;;24.75;13.98;;;;;;;;;;5014599;28;20429;-50
2022/03/04 07:11:11;;;;;;;26.95;15.30;;;;;;;;;;5014669;28;20177;-49
2022/03/04 07:13:37;;;;;;;26.93;13.90;;;;;;;;;;5014700;28;20226;-49
2022/03/04 07:16:04;;;;;;;27.57;14.80;;;;;;;;;;5014805;28;20431;-49
2022/03/04 07:18:30;;;;;;;26.33;14.82;;;;;;;;;;5014415;28;20429;-51
2022/03/04 07:20:57;;;;;;;27.67;14.60;;;;;;;;;;5014622;28;20521;-50
2022/03/04 07:23:23;;;;;;;29.80;15.70;;;;;;;;;;5014417;28;20184;-52
2022/03/04 07:25:49;;;;;;;28.93;14.97;;;;;;;;;;5014421;28;20511;-49
2022/03/04 07:28:15;;;;;;;29.87;17.40;;;;;;;;;;5014109;28;20428;-51
2022/03/04 07:30:41;;;;;;;30.73;16.50;;;;;;;;;;5014902;28;20412;-50
2022/03/04 07:33:07;;;;;;;31.00;16.47;;;;;;;;;;5013027;28;20470;-51
2022/03/04 07:35:34;;;;;;;29.33;15.53;;;;;;;;;;5013188;28;20412;-51
2022/03/04 07:38:00;;;;;;;30.17;16.40;;;;;;;;;;5014368;28;20416;-51
2022/03/04 07:40:26;;;;;;;25.70;15.13;;;;;;;;;;5014194;28;20407;-52
2022/03/04 07:42:51;;;;;;;25.07;16.20;;;;;;;;;;5014160;28;20450;-52
2022/03/04 07:45:18;;;;;;;28.67;17.40;;;;;;;;;;5014361;28;20450;-51
2022/03/04 07:47:44;;;;;;;31.10;16.13;;;;;;;;;;5014324;28;20462;-50
2022/03/04 07:50:11;;;;;;;28.43;17.27;;;;;;;;;;5014200;28;20427;-51
2022/03/04 07:52:37;;;;;;;30.17;18.00;;;;;;;;;;5014027;28;20739;-50
2022/03/04 07:55:04;;;;;;;30.40;17.20;;;;;;;;;;5013492;28;20422;-52
2022/03/04 07:57:30;;;;;;;24.20;15.33;;;;;;;;;;5014285;28;20403;-51
2022/03/04 07:59:56;;;;;;;25.23;14.70;;;;;;;;;;5013624;28;20798;-50
2022/03/04 08:02:22;;;;;;;28.20;16.40;;;;;;;;;;5002489;28;20412;-50
2022/03/04 08:04:48;;;;;;;33.77;16.30;;;;;;;;;;4994039;28;20473;-51
2022/03/04 08:07:14;;;;;;;26.53;16.77;;;;;;;;;;4994150;28;20392;-50
2022/03/04 08:09:41;;;;;;;29.57;16.97;;;;;;;;;;4993432;28;21279;-50
2022/03/04 08:12:07;;;;;;;35.00;16.63;;;;;;;;;;4994096;28;20491;-50
2022/03/04 08:14:33;;;;;;;26.97;16.83;;;;;;;;;;4994367;28;20448;-50
2022/03/04 08:16:59;;;;;;;25.03;15.90;;;;;;;;;;4993902;28;21173;-51
2022/03/04 08:19:25;;;;;;;26.33;15.10;;;;;;;;;;4993494;28;20427;-52
2022/03/04 08:21:51;;;;;;;23.03;14.73;;;;;;;;;;4993794;28;20455;-49
2022/03/04 08:24:18;;;;;;;23.10;14.73;;;;;;;;;;4993538;28;20835;-50
2022/03/04 08:26:43;;;;;;;23.57;13.70;;;;;;;;;;4993844;28;20400;-51
2022/03/04 08:29:10;;;;;;;25.77;15.43;;;;;;;;;;4993418;28;20439;-52
2022/03/04 08:31:36;;;;;;;27.50;14.50;;;;;;;;;;4992789;28;20400;-49
2022/03/04 08:34:02;;;;;;;29.17;15.33;;;;;;;;;;4993049;28;20538;-49
2022/03/04 08:36:28;;;;;;;26.57;13.20;;;;;;;;;;4993644;28;20515;-49
2022/03/04 08:38:54;;;;;;;24.70;14.57;;;;;;;;;;4993196;28;20997;-49
2022/03/04 08:41:20;;;;;;;22.57;13.57;;;;;;;;;;4993452;28;20404;-50
2022/03/04 08:43:47;;;;;;;24.33;14.40;;;;;;;;;;4993448;28;20485;-49
2022/03/04 08:46:14;;;;;;;23.27;13.50;;;;;;;;;;4993322;28;20899;-50
2022/03/04 08:48:40;;;;;;;24.80;15.23;;;;;;;;;;4993378;28;20419;-52
2022/03/04 08:51:06;;;;;;;21.80;13.50;;;;;;;;;;4993277;28;20422;-51
2022/03/04 08:53:33;;;;;;;21.00;14.07;;;;;;;;;;4993744;28;20826;-51
2022/03/04 08:55:59;;;;;;;22.40;13.27;;;;;;;;;;4993376;28;20430;-51
2022/03/04 08:58:25;;;;;;;28.87;14.77;;;;;;;;;;4991819;28;20470;-51
2022/03/04 09:00:51;;;;;;;28.20;14.17;;;;;;;;;;4993584;28;20413;-49
2022/03/04 09:03:17;;;;;;;23.37;13.90;;;;;;;;;;4993790;28;20455;-51
2022/03/04 09:05:43;;;;;;;25.70;15.53;;;;;;;;;;4993381;28;20900;-52
2022/03/04 09:08:09;;;;;;;26.10;14.27;;;;;;;;;;4992043;28;20404;-49
2022/03/04 09:10:35;;;;;;;27.93;14.57;;;;;;;;;;4991855;28;20404;-49
2022/03/04 09:13:01;;;;;;;24.87;14.40;;;;;;;;;;4993069;28;20413;-52
2022/03/04 09:15:26;;;;;;;24.87;15.27;;;;;;;;;;4993194;28;20417;-53
2022/03/04 09:17:52;;;;;;;19.67;13.13;;;;;;;;;;4992821;28;20416;-53
2022/03/04 09:20:19;;;;;;;21.07;14.17;;;;;;;;;;4993258;28;20435;-53
2022/03/04 09:22:46;;;;;;;24.13;14.63;;;;;;;;;;4992618;28;20557;-53
2022/03/04 09:25:12;;;;;;;21.27;12.77;;;;;;;;;;4992740;28;20406;-52
2022/03/04 09:27:38;;;;;;;19.83;12.50;;;;;;;;;;4992719;28;20419;-52
2022/03/04 09:30:04;;;;;;;24.33;13.20;;;;;;;;;;4992323;28;20408;-53
2022/03/04 09:32:30;;;;;;;21.40;14.10;;;;;;;;;;4992535;28;20431;-53
2022/03/04 09:34:57;;;;;;;18.47;12.70;;;;;;;;;;4992630;28;20418;-53
2022/03/04 09:37:23;;;;;;;21.93;13.60;;;;;;;;;;4992019;28;20789;-51
2022/03/04 09:39:49;;;;;;;22.67;14.80;;;;;;;;;;4991456;28;20416;-52
2022/03/04 09:42:14;;;;;;;23.10;14.60;;;;;;;;;;4992044;28;20432;-51
2022/03/04 09:44:41;;;;;;;22.93;15.33;;;;;;;;;;4991895;28;20803;-53
2022/03/04 09:47:08;;;;;;;17.57;12.83;;;;;;;;;;4992483;28;20408;-52
2022/03/04 09:49:35;;;;;;;22.63;14.13;;;;;;;;;;4991651;28;20433;-53
2022/03/04 09:52:01;;;;;;;19.03;14.37;;;;;;;;;;4991630;28;20432;-52
2022/03/04 09:54:28;;;;;;;20.80;13.77;;;;;;;;;;4992147;28;20452;-51
2022/03/04 09:56:56;;;;;;;21.23;14.30;;;;;;;;;;4992206;28;20417;-52
2022/03/04 09:59:22;;;;;;;29.30;14.27;;;;;;;;;;4991518;28;20977;-52
2022/03/04 10:01:48;;;;;;;23.00;15.10;;;;;;;;;;4992056;28;20440;-51
2022/03/04 10:04:14;;;;;;;22.40;14.30;;;;;;;;;;4991793;28;20968;-53
2022/03/04 10:06:40;;;;;;;21.10;14.50;;;;;;;;;;4991920;28;20425;-50
2022/03/04 10:09:06;;;;;;;22.60;14.43;;;;;;;;;;4973320;28;20432;-51
2022/03/04 10:11:33;;;;;;;21.10;14.00;;;;;;;;;;4991907;28;20505;-53
2022/03/04 10:14:00;;;;;;;28.60;15.80;;;;;;;;;;4991838;28;20441;-53
2022/03/04 10:16:30;;;;;;;23.77;15.40;;;;;;;;;;4990607;28;20417;-53
2022/03/04 10:19:09;;;;;;;18.00;14.70;;;;;;;;;;4991256;28;20445;-53
2022/03/04 10:21:50;;;;;;;20.93;14.33;;;;;;;;;;4991697;28;20831;-53
2022/03/04 10:24:17;;;;;;;24.87;15.13;;;;;;;;;;4991683;28;20816;-53
2022/03/04 10:26:43;;;;;;;19.87;14.70;;;;;;;;;;4991687;28;20521;-53
2022/03/04 10:29:19;;;;;;;22.53;15.10;;;;;;;;;;4991282;28;20878;-53
2022/03/04 10:32:07;;;;;;;22.07;15.63;;;;;;;;;;4972436;28;20415;-53
2022/03/04 10:34:50;;;;;;;27.80;14.90;;;;;;;;;;4982784;28;20422;-53
2022/03/04 10:37:18;;;;;;;22.00;15.10;;;;;;;;;;4991503;28;20906;-53
2022/03/04 10:39:57;;;;;;;26.70;16.10;;;;;;;;;;4991265;28;20437;-53
2022/03/04 10:42:42;;;;;;;21.77;15.57;;;;;;;;;;4991594;28;20471;-52
2022/03/04 10:45:09;;;;;;;22.50;15.63;;;;;;;;;;4991576;28;20511;-52
2022/03/04 10:47:41;;;;;;;24.90;16.30;;;;;;;;;;4991521;28;20902;-53
2022/03/04 10:50:08;;;;;;;20.60;15.80;;;;;;;;;;4991118;28;20437;-52
2022/03/04 10:52:34;;;;;;;25.80;15.47;;;;;;;;;;4991017;28;20508;-53
2022/03/04 10:55:00;;;;;;;23.90;16.63;;;;;;;;;;4991196;28;20812;-52
2022/03/04 10:57:26;;;;;;;21.83;15.50;;;;;;;;;;4991203;28;20429;-53
2022/03/04 10:59:56;;;;;;;22.03;15.60;;;;;;;;;;4990332;28;20972;-53
2022/03/04 11:02:43;;;;;;;27.57;16.10;;;;;;;;;;4992677;28;20424;-52
2022/03/04 11:05:09;;;;;;;25.20;17.53;;;;;;;;;;4991172;28;20490;-51
2022/03/04 11:07:36;;;;;;;24.60;16.40;;;;;;;;;;4991126;28;20422;-52
2022/03/04 11:10:03;;;;;;;24.07;16.23;;;;;;;;;;4990623;28;20441;-52
2022/03/04 11:12:29;;;;;;;26.57;16.43;;;;;;;;;;4991007;28;20883;-50
2022/03/04 11:14:56;;;;;;;25.30;17.43;;;;;;;;;;4973507;28;20497;-52
2022/03/04 11:17:22;;;;;;;31.27;18.07;;;;;;;;;;4991158;28;20511;-53
2022/03/04 11:19:49;;;;;;;25.43;17.00;;;;;;;;;;4990791;28;20435;-53
2022/03/04 11:22:16;;;;;;;23.40;16.03;;;;;;;;;;4991010;28;20401;-51
2022/03/04 11:24:42;;;;;;;24.87;17.43;;;;;;;;;;4990929;28;20463;-52
2022/03/04 11:27:10;;;;;;;24.73;18.03;;;;;;;;;;4990591;28;20421;-52
2022/03/04 11:29:37;;;;;;;21.27;16.33;;;;;;;;;;4990802;28;20487;-52
2022/03/04 11:32:06;;;;;;;20.70;15.80;;;;;;;;;;4994332;28;20412;-53
2022/03/04 11:34:42;;;;;;;22.37;16.03;;;;;;;;;;4977361;28;20434;-50
2022/03/04 11:37:18;;;;;;;24.43;14.77;;;;;;;;;;4994436;28;20928;-50
2022/03/04 11:40:04;;;;;;;23.23;15.57;;;;;;;;;;4994726;28;20454;-50
2022/03/04 11:42:37;;;;;;;20.97;15.30;;;;;;;;;;4994756;28;20426;-50
2022/03/04 11:45:04;;;;;;;24.13;14.90;;;;;;;;;;4977109;28;20420;-49
2022/03/04 11:47:31;;;;;;;26.23;15.40;;;;;;;;;;4994440;28;20436;-52
2022/03/04 11:49:57;;;;;;;21.67;15.70;;;;;;;;;;4994057;28;20424;-49
2022/03/04 11:52:42;;;;;;;21.90;14.90;;;;;;;;;;4976299;28;20521;-49
2022/03/04 11:55:10;;;;;;;22.30;14.70;;;;;;;;;;4994349;28;20423;-51
2022/03/04 11:57:44;;;;;;;22.97;16.00;;;;;;;;;;4993961;28;20495;-50
2022/03/04 12:00:10;;;;;;;19.63;14.70;;;;;;;;;;4994147;28;20574;-50
2022/03/04 12:02:36;;;;;;;21.93;15.60;;;;;;;;;;4994189;28;20502;-50
2022/03/04 12:05:14;;;;;;;21.23;14.67;;;;;;;;;;4994283;28;20434;-50
2022/03/04 12:07:41;;;;;;;22.13;15.57;;;;;;;;;;4994276;28;20405;-53
2022/03/04 12:10:17;;;;;;;19.47;14.20;;;;;;;;;;4994089;28;20962;-49
2022/03/04 12:13:01;;;;;;;20.87;15.40;;;;;;;;;;4993813;28;20396;-52
2022/03/04 12:15:27;;;;;;;24.30;15.43;;;;;;;;;;4993968;28;20404;-50
2022/03/04 12:17:54;;;;;;;26.40;16.20;;;;;;;;;;4993894;28;20411;-50
2022/03/04 12:20:44;;;;;;;20.50;15.00;;;;;;;;;;4976261;28;20422;-49
2022/03/04 12:23:11;;;;;;;19.43;14.17;;;;;;;;;;4988234;28;20488;-49
2022/03/04 12:25:55;;;;;;;20.97;14.37;;;;;;;;;;4993895;28;20426;-50
2022/03/04 12:28:21;;;;;;;22.10;15.50;;;;;;;;;;4993077;28;20462;-50
2022/03/04 12:31:01;;;;;;;21.70;13.80;;;;;;;;;;4993856;28;20408;-50
2022/03/04 12:33:28;;;;;;;20.97;15.00;;;;;;;;;;4994659;28;21120;-50
2022/03/04 12:35:57;;;;;;;20.53;15.20;;;;;;;;;;4994188;28;20460;-51
2022/03/04 12:38:23;;;;;;;21.10;15.27;;;;;;;;;;4993959;28;20434;-50
2022/03/04 12:40:49;;;;;;;21.53;15.50;;;;;;;;;;4994390;28;20404;-49
2022/03/04 12:43:15;;;;;;;20.83;14.80;;;;;;;;;;4993044;28;20808;-50
2022/03/04 12:45:42;;;;;;;20.23;15.10;;;;;;;;;;4994351;28;20400;-51
2022/03/04 12:48:08;;;;;;;22.07;16.57;;;;;;;;;;4993443;28;20505;-51
2022/03/04 12:50:35;;;;;;;19.20;15.00;;;;;;;;;;4993506;28;20925;-50
2022/03/04 12:53:18;;;;;;;20.03;15.00;;;;;;;;;;4993871;28;20434;-49
2022/03/04 12:55:48;;;;;;;20.93;13.80;;;;;;;;;;4993595;28;20431;-50
2022/03/04 12:58:14;;;;;;;20.40;14.33;;;;;;;;;;4993027;28;20417;-50
2022/03/04 13:00:40;;;;;;;22.20;15.97;;;;;;;;;;4992886;28;20407;-50
2022/03/04 13:03:19;;;;;;;23.53;15.83;;;;;;;;;;4993083;28;20465;-50
2022/03/04 13:05:46;;;;;;;23.43;16.77;;;;;;;;;;4993268;28;20497;-49
2022/03/04 13:08:15;;;;;;;21.17;14.90;;;;;;;;;;4992181;28;20415;-50
2022/03/04 13:10:41;;;;;;;23.20;17.20;;;;;;;;;;4981855;28;20955;-51
2022/03/04 13:13:07;;;;;;;20.97;15.17;;;;;;;;;;4993003;28;20811;-50
2022/03/04 13:15:34;;;;;;;21.43;15.97;;;;;;;;;;4992700;28;20438;-49
2022/03/04 13:18:03;;;;;;;21.20;15.03;;;;;;;;;;4992715;28;20408;-50
2022/03/04 13:20:29;;;;;;;23.90;16.17;;;;;;;;;;4992625;28;21079;-50
2022/03/04 13:23:04;;;;;;;19.30;14.83;;;;;;;;;;4992788;28;20479;-52
2022/03/04 13:25:30;;;;;;;25.07;15.90;;;;;;;;;;4992485;28;20415;-50
2022/03/04 13:27:56;;;;;;;21.73;15.97;;;;;;;;;;4976107;28;20451;-53
2022/03/04 13:30:22;;;;;;;20.00;15.47;;;;;;;;;;4992817;28;20451;-51
2022/03/04 13:32:54;;;;;;;22.10;15.97;;;;;;;;;;4992831;28;20415;-50
2022/03/04 13:35:21;;;;;;;22.23;15.20;;;;;;;;;;4992465;28;20424;-51
2022/03/04 13:37:47;;;;;;;20.00;14.90;;;;;;;;;;4992542;28;20440;-51
2022/03/04 13:40:22;;;;;;;18.77;14.93;;;;;;;;;;4992066;28;20530;-50
2022/03/04 13:42:56;;;;;;;20.37;14.40;;;;;;;;;;4991743;28;20965;-50
2022/03/04 13:45:44;;;;;;;18.97;14.57;;;;;;;;;;4992379;28;20466;-49
2022/03/04 13:48:10;;;;;;;21.83;14.73;;;;;;;;;;4986042;28;20916;-50
2022/03/04 13:50:38;;;;;;;19.70;14.07;;;;;;;;;;4991767;28;20411;-50
2022/03/04 13:53:03;;;;;;;18.10;13.60;;;;;;;;;;4992037;28;20867;-52
2022/03/04 13:55:35;;;;;;;20.00;14.87;;;;;;;;;;4992228;28;20412;-50
2022/03/04 13:58:09;;;;;;;18.70;13.97;;;;;;;;;;4991970;28;20404;-52
2022/03/04 14:00:36;;;;;;;20.50;13.80;;;;;;;;;;4992327;28;20908;-51
2022/03/04 14:03:04;;;;;;;17.90;13.40;;;;;;;;;;4992081;28;20401;-51
2022/03/04 14:05:31;;;;;;;18.77;11.83;;;;;;;;;;4991718;28;20419;-51
2022/03/04 14:08:06;;;;;;;18.70;12.90;;;;;;;;;;4991935;28;20406;-51
2022/03/04 14:10:33;;;;;;;17.77;12.33;;;;;;;;;;4990987;28;20402;-52
2022/03/04 14:13:00;;;;;;;17.17;11.90;;;;;;;;;;4990834;28;20408;-51
2022/03/04 14:15:26;;;;;;;16.80;12.47;;;;;;;;;;4991849;28;20409;-51
2022/03/04 14:17:59;;;;;;;13.80;11.70;;;;;;;;;;4990688;28;20492;-51
2022/03/04 14:20:26;;;;;;;17.67;12.83;;;;;;;;;;4991779;28;20486;-52
2022/03/04 14:22:52;;;;;;;18.50;12.13;;;;;;;;;;4991136;28;20411;-51